Time;durP1;ratioP1;P1;durP2;ratioP2;P2;SDS_P1;SDS_P2;PMS_P1;PMS_P2;Temp;Humidity;BMP_temperature;BMP_pressure;BME280_temperature;BME280_humidity;BME280_pressure;Samples;Min_cycle;Max_cycle;Signal;HPM_P1;HPM_P2
2020/12/10 00:01:52;;;;;;;6.15;5.18;;;;;;;18.80;49.12;100771.94;4825507;29;20037;-78
2020/12/10 00:04:18;;;;;;;9.05;6.20;;;;;;;18.75;49.21;100761.50;4810044;29;20042;-78
2020/12/10 00:06:43;;;;;;;7.05;5.30;;;;;;;18.77;49.03;100759.75;4822596;29;20062;-78
2020/12/10 00:09:09;;;;;;;8.40;6.63;;;;;;;18.74;48.87;100751.03;4829184;29;20090;-78
2020/12/10 00:11:35;;;;;;;8.32;5.53;;;;;;;18.72;48.98;100750.16;4805536;29;20381;-78
2020/12/10 00:14:00;;;;;;;8.38;5.57;;;;;;;18.75;49.00;100758.88;4846318;29;20044;-76
2020/12/10 00:16:26;;;;;;;6.35;5.22;;;;;;;18.76;49.00;100758.00;4820281;29;20029;-76
2020/12/10 00:18:51;;;;;;;7.30;5.35;;;;;;;18.73;48.91;100749.28;4823178;29;20033;-75
2020/12/10 00:21:21;;;;;;;6.63;5.68;;;;;;;18.75;49.03;100753.63;4795646;29;20030;-76
2020/12/10 00:23:47;;;;;;;7.72;5.57;;;;;;;18.74;48.96;100751.91;4832148;29;20065;-76
2020/12/10 00:26:13;;;;;;;7.03;5.32;;;;;;;18.74;49.08;100749.28;4828284;29;20026;-76
2020/12/10 00:28:39;;;;;;;6.75;5.20;;;;;;;18.70;48.99;100741.44;4844988;29;20037;-75
2020/12/10 00:31:04;;;;;;;6.40;5.55;;;;;;;18.73;48.94;100744.03;4813669;29;20041;-75
2020/12/10 00:33:29;;;;;;;6.10;5.15;;;;;;;18.71;49.03;100753.66;4828546;29;20060;-76
2020/12/10 00:35:55;;;;;;;8.77;5.03;;;;;;;18.73;48.79;100755.41;4828185;29;20121;-76
2020/12/10 00:38:20;;;;;;;6.03;5.18;;;;;;;18.71;49.03;100754.53;4819875;29;20507;-75
2020/12/10 00:40:46;;;;;;;6.20;4.97;;;;;;;18.65;48.94;100738.00;4834916;29;20069;-75
2020/12/10 00:43:11;;;;;;;6.70;4.75;;;;;;;18.69;49.08;100748.47;4829381;29;20057;-75
2020/12/10 00:45:36;;;;;;;7.88;5.32;;;;;;;18.67;49.01;100742.34;4813329;29;20099;-75
2020/12/10 00:48:02;;;;;;;7.05;4.93;;;;;;;18.64;48.81;100737.13;4798116;29;20040;-75
2020/12/10 00:50:27;;;;;;;9.85;5.85;;;;;;;18.70;48.81;100744.06;4835111;29;20036;-76
2020/12/10 00:52:52;;;;;;;6.18;5.43;;;;;;;18.68;49.12;100738.00;4831413;29;20033;-76
2020/12/10 00:55:18;;;;;;;6.60;5.03;;;;;;;18.63;48.92;100722.28;4846742;29;20068;-76
2020/12/10 00:57:43;;;;;;;5.93;4.88;;;;;;;18.64;48.80;100726.66;4817474;29;20045;-75
2020/12/10 01:00:10;;;;;;;5.05;4.00;;;;;;;18.67;48.85;100729.25;4827231;29;20037;-75
2020/12/10 01:02:35;;;;;;;5.78;5.13;;;;;;;18.64;48.83;100731.91;4828797;29;20037;-75
2020/12/10 01:05:00;;;;;;;7.10;4.80;;;;;;;18.66;48.67;100739.75;4827869;29;20042;-76
2020/12/10 01:07:26;;;;;;;6.13;5.05;;;;;;;18.62;48.92;100735.41;4809717;29;20050;-76
2020/12/10 01:09:51;;;;;;;6.47;4.47;;;;;;;18.62;48.98;100733.66;4790770;29;20058;-75
2020/12/10 01:12:16;;;;;;;6.68;5.50;;;;;;;18.66;48.74;100739.75;4798004;29;20125;-75
2020/12/10 01:14:42;;;;;;;7.60;4.78;;;;;;;18.64;48.83;100741.50;4827889;29;20038;-76
2020/12/10 01:17:07;;;;;;;8.00;4.78;;;;;;;18.61;48.58;100747.63;4827451;29;20042;-75
2020/12/10 01:19:33;;;;;;;5.82;4.90;;;;;;;18.58;48.79;100734.53;4810489;29;20044;-76
2020/12/10 01:21:58;;;;;;;5.10;4.13;;;;;;;18.62;48.72;100741.50;4839199;29;20843;-76
2020/12/10 01:24:24;;;;;;;6.00;5.18;;;;;;;18.61;48.63;100742.38;4847113;29;20430;-76
2020/12/10 01:26:49;;;;;;;5.50;4.55;;;;;;;18.53;48.61;100723.22;4828870;29;20038;-75
2020/12/10 01:29:14;;;;;;;7.55;4.57;;;;;;;18.54;48.76;100730.19;4827752;29;20758;-76
2020/12/10 01:31:40;;;;;;;5.97;4.45;;;;;;;18.59;48.85;100732.78;4827731;29;20030;-76
2020/12/10 01:34:05;;;;;;;5.95;4.78;;;;;;;18.55;48.77;100729.31;4827501;29;20063;-76
2020/12/10 01:36:31;;;;;;;5.38;4.40;;;;;;;18.56;48.95;100734.53;4811676;29;20117;-76
2020/12/10 01:38:57;;;;;;;5.75;4.63;;;;;;;18.57;48.85;100733.63;4819551;29;20132;-75
2020/12/10 01:41:31;;;;;;;6.03;4.65;;;;;;;18.53;48.81;100726.72;4836936;29;20029;-76
2020/12/10 01:44:03;;;;;;;;;;;;;;;18.59;48.60;100731.03;4835099;29;20096;-75
2020/12/10 01:46:29;;;;;;;5.30;4.53;;;;;;;18.56;48.58;100723.22;4839340;29;19916;-76
2020/12/10 01:48:54;;;;;;;5.25;4.60;;;;;;;18.52;48.84;100714.50;4854036;29;20089;-77
2020/12/10 01:51:20;;;;;;;5.82;4.20;;;;;;;18.57;48.64;100722.28;4834812;29;20053;-77
2020/12/10 01:53:45;;;;;;;6.78;4.47;;;;;;;18.51;48.72;100714.50;4812595;29;20061;-77
2020/12/10 01:56:10;;;;;;;5.35;4.18;;;;;;;18.52;48.64;100706.63;4797709;29;20034;-77
2020/12/10 01:58:36;;;;;;;5.18;4.22;;;;;;;18.52;48.72;100703.16;4832082;29;20066;-77
2020/12/10 02:01:02;;;;;;;7.00;4.43;;;;;;;18.51;48.61;100706.66;4838666;29;20033;-76
2020/12/10 02:03:27;;;;;;;4.32;3.75;;;;;;;18.46;48.58;100690.09;4811520;29;20041;-76
2020/12/10 02:05:52;;;;;;;4.93;3.85;;;;;;;18.52;48.79;100704.03;4837932;29;20512;-76
2020/12/10 02:08:18;;;;;;;5.05;4.25;;;;;;;18.55;48.61;100695.28;4796232;29;20549;-76
2020/12/10 02:10:43;;;;;;;6.63;4.30;;;;;;;18.52;48.76;100692.69;4826873;29;20113;-76
2020/12/10 02:13:09;;;;;;;5.55;3.85;;;;;;;18.53;48.53;100702.28;4811842;29;20033;-75
2020/12/10 02:15:35;;;;;;;4.88;3.65;;;;;;;18.52;48.76;100692.69;4835089;29;20384;-76
2020/12/10 02:18:05;;;;;;;6.47;4.32;;;;;;;18.52;48.71;100690.94;4827029;29;20033;-76
2020/12/10 02:20:34;;;;;;;5.03;4.10;;;;;;;18.44;48.69;100676.13;4830007;29;20393;-76
2020/12/10 02:23:03;;;;;;;4.60;3.95;;;;;;;18.49;48.66;100690.06;4842133;29;20038;-75
2020/12/10 02:25:30;;;;;;;4.47;3.65;;;;;;;18.41;48.52;100679.66;4844742;29;20107;-76
2020/12/10 02:27:58;;;;;;;5.38;4.05;;;;;;;18.42;48.64;100672.69;4816731;29;20060;-76
2020/12/10 02:30:23;;;;;;;4.70;3.55;;;;;;;18.49;48.66;100676.97;4828947;29;20037;-76
2020/12/10 02:32:55;;;;;;;6.55;4.70;;;;;;;18.49;48.71;100676.97;4833987;29;20098;-76
2020/12/10 02:35:21;;;;;;;5.90;4.30;;;;;;;18.39;48.42;100670.94;4841912;29;20393;-76
2020/12/10 02:37:47;;;;;;;4.75;3.92;;;;;;;18.47;48.72;100678.72;4816326;29;20034;-76
2020/12/10 02:40:13;;;;;;;5.72;4.30;;;;;;;18.39;48.46;100677.94;4811345;29;20029;-76
2020/12/10 02:42:38;;;;;;;5.13;4.63;;;;;;;18.47;48.47;100686.59;4839785;29;20038;-76
2020/12/10 02:45:04;;;;;;;5.13;3.88;;;;;;;18.46;48.67;100675.25;4797843;29;20047;-76
2020/12/10 02:47:29;;;;;;;4.25;3.83;;;;;;;18.47;48.79;100678.72;4780279;29;20037;-76
2020/12/10 02:49:55;;;;;;;5.78;4.07;;;;;;;18.34;48.56;100656.13;4812674;29;20029;-75
2020/12/10 02:52:20;;;;;;;3.85;3.30;;;;;;;18.47;48.74;100676.97;4798436;29;20490;-76
2020/12/10 02:54:45;;;;;;;4.78;4.10;;;;;;;18.39;48.59;100663.09;4796401;29;20442;-76
2020/12/10 02:57:11;;;;;;;6.10;4.00;;;;;;;18.46;48.52;100669.13;4812734;29;20545;-75
2020/12/10 02:59:36;;;;;;;4.00;3.60;;;;;;;18.47;48.79;100674.38;4795784;29;20047;-76
2020/12/10 03:02:01;;;;;;;4.25;3.50;;;;;;;18.44;48.51;100668.28;4792851;29;20495;-76
2020/12/10 03:04:26;;;;;;;3.80;3.28;;;;;;;18.42;48.58;100677.91;4780356;29;20051;-76
2020/12/10 03:06:52;;;;;;;5.38;3.92;;;;;;;18.42;48.63;100675.31;4796324;29;20034;-76
2020/12/10 03:09:17;;;;;;;4.68;3.53;;;;;;;18.41;48.56;100663.09;4780977;29;20038;-77
2020/12/10 03:11:43;;;;;;;3.97;3.40;;;;;;;18.37;48.31;100651.75;4810370;29;20059;-77
2020/12/10 03:14:08;;;;;;;3.65;3.28;;;;;;;18.40;48.37;100656.09;4788219;29;20087;-77
2020/12/10 03:16:34;;;;;;;4.25;3.42;;;;;;;18.39;48.64;100650.00;4781852;29;20047;-76
2020/12/10 03:18:59;;;;;;;4.35;3.45;;;;;;;18.42;48.68;100656.97;4796207;29;20061;-78
2020/12/10 03:21:24;;;;;;;6.57;3.58;;;;;;;18.34;48.78;100643.06;4792407;29;20046;-77
2020/12/10 03:23:56;;;;;;;5.05;3.72;;;;;;;18.36;48.62;100646.53;4796224;29;20054;-77
2020/12/10 03:26:21;;;;;;;4.00;3.45;;;;;;;18.40;48.55;100643.03;4794576;29;20070;-77
2020/12/10 03:28:46;;;;;;;4.60;3.00;;;;;;;18.39;48.57;100651.75;4804467;29;20045;-78
2020/12/10 03:31:12;;;;;;;4.22;3.83;;;;;;;18.36;48.48;100642.16;4810490;29;20030;-77
2020/12/10 03:33:37;;;;;;;5.05;4.00;;;;;;;18.34;48.67;100638.69;4792453;29;20099;-78
2020/12/10 03:36:03;;;;;;;4.20;3.30;;;;;;;18.38;48.23;100640.41;4808948;29;20046;-77
2020/12/10 03:38:28;;;;;;;3.60;3.20;;;;;;;18.34;48.47;100635.19;4809241;29;20038;-77
2020/12/10 03:40:55;;;;;;;3.75;3.35;;;;;;;18.37;48.41;100637.78;4793713;29;20494;-77
2020/12/10 03:43:20;;;;;;;4.68;4.00;;;;;;;18.37;48.71;100641.28;4815706;29;20153;-78
2020/12/10 03:45:46;;;;;;;4.57;3.50;;;;;;;18.35;48.63;100634.31;4815813;29;20129;-77
2020/12/10 03:48:11;;;;;;;4.65;3.60;;;;;;;18.30;48.54;100631.75;4821393;29;20067;-78
2020/12/10 03:50:36;;;;;;;4.25;3.03;;;;;;;18.34;48.47;100633.44;4812535;29;20050;-78
2020/12/10 03:53:02;;;;;;;4.22;3.40;;;;;;;18.30;48.57;100626.53;4838741;29;20041;-78
2020/12/10 03:55:27;;;;;;;3.55;2.90;;;;;;;18.21;48.27;100606.50;4800187;29;20145;-78
2020/12/10 03:57:52;;;;;;;3.50;2.90;;;;;;;18.32;48.46;100627.34;4832991;29;20017;-78
2020/12/10 04:00:20;;;;;;;4.32;3.25;;;;;;;18.34;48.45;100628.22;4808384;29;20093;-78
2020/12/10 04:02:45;;;;;;;4.30;3.70;;;;;;;18.30;48.55;100626.53;4833358;29;20449;-78
2020/12/10 04:05:11;;;;;;;3.92;3.08;;;;;;;18.33;48.28;100625.59;4803583;29;20034;-78
2020/12/10 04:07:36;;;;;;;4.05;3.40;;;;;;;18.34;48.38;100637.81;4817216;29;20033;-77
2020/12/10 04:10:02;;;;;;;3.97;3.53;;;;;;;18.32;48.56;100629.09;4810954;29;20117;-77
2020/12/10 04:12:27;;;;;;;4.05;3.38;;;;;;;18.32;48.38;100621.25;4827511;29;20062;-76
2020/12/10 04:14:53;;;;;;;3.90;2.90;;;;;;;18.27;48.56;100615.19;4810470;29;20133;-75
2020/12/10 04:17:18;;;;;;;3.45;2.85;;;;;;;18.29;48.49;100621.28;4828684;29;20433;-75
2020/12/10 04:19:43;;;;;;;3.78;2.92;;;;;;;18.31;48.67;100635.22;4798670;29;20038;-76
2020/12/10 04:22:09;;;;;;;5.00;2.80;;;;;;;18.29;48.90;100627.41;4814989;29;20033;-75
2020/12/10 04:24:34;;;;;;;3.60;2.72;;;;;;;18.28;48.66;100619.56;4810635;29;20070;-76
2020/12/10 04:26:59;;;;;;;3.63;2.58;;;;;;;18.28;48.72;100627.41;4840346;29;20037;-76
2020/12/10 04:29:25;;;;;;;5.38;3.25;;;;;;;18.20;48.56;100620.47;4798736;29;20037;-76
2020/12/10 04:31:50;;;;;;;3.03;2.65;;;;;;;18.23;48.49;100629.19;4828648;29;20037;-76
2020/12/10 04:34:15;;;;;;;3.67;2.88;;;;;;;18.25;48.50;100628.28;4798628;29;20057;-76
2020/12/10 04:36:41;;;;;;;4.57;3.10;;;;;;;18.26;48.38;100634.41;4828895;29;20057;-76
2020/12/10 04:39:06;;;;;;;3.85;3.33;;;;;;;18.26;48.38;100635.25;4813439;29;20508;-75
2020/12/10 04:41:35;;;;;;;4.03;3.13;;;;;;;18.18;48.37;100614.38;4845024;29;20030;-76
2020/12/10 04:44:00;;;;;;;4.00;3.28;;;;;;;18.27;48.52;100626.53;4834843;29;20053;-76
2020/12/10 04:46:26;;;;;;;3.78;2.42;;;;;;;18.21;48.53;100627.44;4831576;29;20037;-76
2020/12/10 04:48:52;;;;;;;4.07;3.50;;;;;;;18.25;48.09;100632.66;4846841;29;20037;-75
2020/12/10 04:51:21;;;;;;;3.35;3.05;;;;;;;18.23;48.23;100634.41;4812133;29;20035;-76
2020/12/10 04:53:47;;;;;;;3.95;2.50;;;;;;;18.25;48.37;100636.16;4841500;29;20026;-76
2020/12/10 04:56:14;;;;;;;3.50;2.63;;;;;;;18.18;48.44;100626.59;4818505;29;20060;-76
2020/12/10 04:58:41;;;;;;;3.35;2.75;;;;;;;18.18;48.15;100629.19;4828244;29;20108;-75
2020/12/10 05:01:06;;;;;;;4.45;3.38;;;;;;;18.21;48.30;100637.03;4828151;29;20470;-76
2020/12/10 05:03:32;;;;;;;4.63;3.00;;;;;;;18.20;48.35;100637.91;4812979;29;20040;-76
2020/12/10 05:06:11;;;;;;;3.08;2.75;;;;;;;18.18;48.31;100640.53;4844140;29;20080;-76
2020/12/10 05:08:37;;;;;;;3.17;2.70;;;;;;;18.15;48.44;100643.19;4825089;29;20052;-76
2020/12/10 05:11:02;;;;;;;4.05;3.25;;;;;;;18.20;48.17;100649.25;4816674;29;20121;-75
2020/12/10 05:13:28;;;;;;;3.38;2.72;;;;;;;18.23;48.46;100665.81;4809734;29;20088;-77
2020/12/10 05:15:54;;;;;;;3.30;2.50;;;;;;;18.20;48.38;100664.09;4828641;29;20036;-76
2020/12/10 05:18:19;;;;;;;3.33;2.35;;;;;;;18.16;48.40;100650.19;4828510;29;20053;-76
2020/12/10 05:20:54;;;;;;;3.40;2.70;;;;;;;18.22;48.11;100667.56;4812149;29;20053;-76
2020/12/10 05:23:37;;;;;;;3.05;2.75;;;;;;;18.14;48.54;100649.31;4844609;29;20054;-77
2020/12/10 05:26:04;;;;;;;3.17;2.58;;;;;;;18.19;48.20;100655.38;4812743;29;20378;-76
2020/12/10 05:28:50;;;;;;;3.13;2.38;;;;;;;18.19;48.41;100664.97;4827982;29;20071;-76
2020/12/10 05:31:17;;;;;;;3.75;3.13;;;;;;;18.16;48.21;100665.00;4828247;29;20063;-76
2020/12/10 05:33:56;;;;;;;3.25;2.72;;;;;;;18.17;48.17;100669.38;4830181;29;20026;-76
2020/12/10 05:36:23;;;;;;;3.28;2.42;;;;;;;18.13;48.12;100660.66;4827818;29;20033;-76
2020/12/10 05:38:52;;;;;;;3.05;2.35;;;;;;;18.14;48.15;100659.78;4830198;29;20033;-75
2020/12/10 05:41:20;;;;;;;3.88;2.72;;;;;;;18.18;48.29;100666.72;4828632;29;20069;-76
2020/12/10 05:43:46;;;;;;;3.15;2.28;;;;;;;18.17;48.00;100667.63;4804660;29;20136;-75
2020/12/10 05:46:21;;;;;;;4.85;3.03;;;;;;;18.24;48.20;100673.66;4844412;29;20026;-75
2020/12/10 05:48:47;;;;;;;3.58;2.83;;;;;;;18.28;47.80;100672.78;4835746;29;20021;-75
2020/12/10 05:51:43;;;;;;;3.55;2.88;;;;;;;18.32;47.99;100681.44;4828107;29;20389;-76
2020/12/10 05:54:13;;;;;;;4.82;2.80;;;;;;;18.32;48.03;100679.72;4827351;29;20443;-76
2020/12/10 05:56:55;;;;;;;3.25;2.53;;;;;;;18.39;48.03;100683.16;4810205;29;20034;-76
2020/12/10 05:59:24;;;;;;;4.43;2.63;;;;;;;18.47;47.93;100692.69;4827130;29;20065;-78
2020/12/10 06:01:50;;;;;;;4.15;2.72;;;;;;;18.45;48.02;100675.25;4805683;29;20382;-78
2020/12/10 06:04:15;;;;;;;6.30;3.67;;;;;;;18.56;48.17;100687.38;4834467;29;20113;-78
2020/12/10 06:06:41;;;;;;;8.98;4.35;;;;;;;18.52;48.24;100669.09;4811672;29;20375;-75
2020/12/10 06:09:07;;;;;;;8.15;3.92;;;;;;;18.56;48.32;100681.31;4812024;29;20085;-75
2020/12/10 06:11:34;;;;;;;4.95;2.97;;;;;;;18.54;48.27;100683.94;4828988;29;20026;-76
2020/12/10 06:14:07;;;;;;;6.35;2.92;;;;;;;18.62;48.19;100686.50;4826287;29;20042;-76
2020/12/10 06:16:35;;;;;;;6.72;3.67;;;;;;;18.61;48.28;100674.28;4820909;29;20379;-76
2020/12/10 06:19:05;;;;;;;6.28;3.40;;;;;;;18.59;48.37;100677.78;4820656;29;20874;-76
2020/12/10 06:21:42;;;;;;;4.70;3.47;;;;;;;18.58;48.32;100669.06;4831542;29;20125;-76
2020/12/10 06:24:26;;;;;;;6.05;3.33;;;;;;;18.67;48.19;100682.13;4824045;29;20029;-76
2020/12/10 06:26:58;;;;;;;4.63;3.10;;;;;;;18.59;48.45;100681.28;4830853;29;20082;-75
2020/12/10 06:29:26;;;;;;;5.40;3.67;;;;;;;18.60;48.60;100679.53;4808727;29;20084;-75
2020/12/10 06:32:12;;;;;;;6.93;3.42;;;;;;;18.70;48.26;100687.31;4826180;29;20057;-74
2020/12/10 06:34:38;;;;;;;4.85;3.63;;;;;;;18.67;48.27;100681.25;4837568;29;20086;-76
2020/12/10 06:37:23;;;;;;;5.50;3.63;;;;;;;18.71;48.42;100694.28;4821632;29;20034;-76
2020/12/10 06:39:52;;;;;;;4.70;3.53;;;;;;;18.78;48.47;100690.75;4836288;29;20033;-75
2020/12/10 06:42:19;;;;;;;4.75;3.65;;;;;;;18.76;48.42;100684.66;4826729;29;20030;-74
2020/12/10 06:44:49;;;;;;;7.10;3.75;;;;;;;18.74;48.17;100696.00;4793570;29;20463;-75
2020/12/10 06:47:15;;;;;;;6.50;3.28;;;;;;;18.80;48.44;100691.59;4826994;29;20065;-77
2020/12/10 06:49:40;;;;;;;6.30;4.28;;;;;;;18.83;48.51;100688.94;4830750;29;20079;-77
2020/12/10 06:52:20;;;;;;;5.47;3.58;;;;;;;18.77;48.63;100694.25;4817489;29;20038;-76
2020/12/10 06:55:10;;;;;;;5.07;3.00;;;;;;;18.80;48.49;100694.22;4843613;29;20029;-75
2020/12/10 06:58:02;;;;;;;9.85;4.20;;;;;;;18.80;48.63;100696.84;4793109;29;20041;-75
2020/12/10 07:00:49;;;;;;;4.10;2.95;;;;;;;18.79;48.67;100705.59;4811701;29;20545;-75
2020/12/10 07:03:25;;;;;;;4.43;3.03;;;;;;;18.77;48.46;100691.63;4846298;29;20037;-78
2020/12/10 07:05:54;;;;;;;5.40;3.70;;;;;;;18.81;48.49;100703.84;4856434;29;20030;-78
2020/12/10 07:08:20;;;;;;;6.25;3.15;;;;;;;18.80;48.50;100704.72;4817197;29;20038;-78
2020/12/10 07:10:57;;;;;;;5.15;3.15;;;;;;;18.83;48.54;100699.41;4837425;29;20041;-77
2020/12/10 07:13:31;;;;;;;4.45;2.90;;;;;;;18.84;48.34;100695.06;4826687;29;20438;-78
2020/12/10 07:15:57;;;;;;;4.80;2.83;;;;;;;18.81;48.33;100695.09;4829280;29;20042;-78
2020/12/10 07:18:22;;;;;;;3.90;2.67;;;;;;;18.82;48.53;100694.22;4842325;29;20038;-77
2020/12/10 07:20:47;;;;;;;7.15;3.13;;;;;;;18.80;48.30;100689.00;4828520;29;20044;-77
2020/12/10 07:23:14;;;;;;;3.92;2.70;;;;;;;18.84;48.34;100700.28;4829009;29;20034;-77
2020/12/10 07:25:40;;;;;;;3.50;2.55;;;;;;;18.74;48.29;100680.28;4825640;29;20052;-78
2020/12/10 07:28:05;;;;;;;4.00;2.47;;;;;;;18.70;47.92;100676.81;4811475;29;20026;-77
2020/12/10 07:30:32;;;;;;;4.55;2.95;;;;;;;18.85;48.05;100705.53;4807502;29;20110;-77
2020/12/10 07:32:59;;;;;;;5.13;2.47;;;;;;;18.80;48.31;100694.22;4822813;29;20133;-79
2020/12/10 07:35:29;;;;;;;3.42;2.35;;;;;;;18.87;48.19;100703.75;4829636;29;20469;-80
2020/12/10 07:37:54;;;;;;;4.28;2.80;;;;;;;18.88;47.95;100699.38;4859184;29;20473;-79
2020/12/10 07:40:20;;;;;;;3.63;2.40;;;;;;;18.82;48.17;100695.09;4797061;29;20037;-80
2020/12/10 07:42:46;;;;;;;3.67;2.50;;;;;;;18.84;48.14;100697.66;4832927;29;20022;-79
2020/12/10 07:45:15;;;;;;;3.95;2.72;;;;;;;18.85;48.17;100689.81;4828601;29;20504;-77
2020/12/10 07:47:42;;;;;;;2.95;2.22;;;;;;;18.84;48.04;100702.91;4825687;29;20679;-77
2020/12/10 07:50:29;;;;;;;4.07;2.75;;;;;;;18.89;48.14;100709.84;4825172;29;20076;-78
2020/12/10 07:52:56;;;;;;;3.83;2.70;;;;;;;18.92;48.07;100704.59;4857826;24;20474;-79
2020/12/10 07:55:24;;;;;;;4.15;2.50;;;;;;;18.88;47.96;100708.13;4859149;29;20052;-78
2020/12/10 07:58:14;;;;;;;4.88;2.60;;;;;;;18.89;48.09;100715.09;4860903;29;20022;-77
2020/12/10 08:00:45;;;;;;;4.93;2.63;;;;;;;18.86;48.09;100706.38;4862009;29;20025;-75
2020/12/10 08:03:26;;;;;;;3.72;2.33;;;;;;;18.84;48.07;100695.91;4865021;29;20697;-76
2020/12/10 08:06:05;;;;;;;4.00;2.35;;;;;;;18.88;47.98;100708.13;4859713;29;20041;-76
2020/12/10 08:08:41;;;;;;;3.20;2.50;;;;;;;18.91;47.73;100704.63;4861545;29;20033;-77
2020/12/10 08:11:17;;;;;;;5.25;2.63;;;;;;;18.85;47.82;100709.88;4841172;29;20515;-78
2020/12/10 08:13:53;;;;;;;3.65;2.55;;;;;;;18.84;48.12;100708.16;4845807;29;20026;-77
2020/12/10 08:16:19;;;;;;;2.83;2.10;;;;;;;18.85;48.05;100707.28;4849025;29;20037;-77
2020/12/10 08:18:45;;;;;;;3.05;2.15;;;;;;;18.87;48.08;100719.47;4862055;29;20493;-78
2020/12/10 08:21:11;;;;;;;3.53;2.50;;;;;;;18.88;47.94;100715.97;4858500;29;20038;-79
2020/12/10 08:23:45;;;;;;;3.50;2.42;;;;;;;18.94;47.95;100719.44;4829509;29;20041;-78
2020/12/10 08:26:12;;;;;;;3.10;2.80;;;;;;;18.83;48.14;100712.53;4844146;29;20040;-78
2020/12/10 08:28:57;;;;;;;3.08;2.08;;;;;;;18.87;47.55;100719.47;4842203;29;20122;-78
2020/12/10 08:31:24;;;;;;;3.15;2.28;;;;;;;18.90;47.69;100716.84;4862515;29;20036;-78
2020/12/10 08:33:51;;;;;;;3.60;2.47;;;;;;;18.82;47.68;100702.09;4863938;29;20113;-78
2020/12/10 08:36:26;;;;;;;3.53;2.33;;;;;;;18.88;47.76;100720.34;4862491;29;20489;-78
2020/12/10 08:38:53;;;;;;;3.90;2.28;;;;;;;18.90;47.78;100716.84;4863623;29;20069;-78
2020/12/10 08:41:31;;;;;;;2.67;1.70;;;;;;;18.89;47.65;100722.97;4845740;29;20124;-80
2020/12/10 08:44:02;;;;;;;5.32;2.67;;;;;;;18.89;47.48;100724.72;4843490;29;20034;-80
2020/12/10 08:46:29;;;;;;;2.50;2.15;;;;;;;18.92;47.69;100728.19;4845804;29;20165;-80
2020/12/10 08:48:56;;;;;;;3.22;2.28;;;;;;;18.92;47.55;100722.06;4844023;29;20042;-80
2020/12/10 08:51:22;;;;;;;2.85;1.75;;;;;;;18.89;47.71;100725.59;4845325;29;20497;-80
2020/12/10 08:53:52;;;;;;;2.85;1.88;;;;;;;18.95;47.69;100721.19;4852706;29;20056;-80
2020/12/10 08:56:32;;;;;;;4.68;2.40;;;;;;;18.94;47.53;100722.94;4864871;29;20048;-79
2020/12/10 08:58:58;;;;;;;2.38;1.77;;;;;;;18.85;47.68;100720.38;4861775;29;20433;-80
2020/12/10 09:01:23;;;;;;;2.25;1.80;;;;;;;18.88;47.52;100715.97;4861190;29;20165;-80
2020/12/10 09:03:48;;;;;;;3.03;1.90;;;;;;;18.96;47.62;100728.13;4861768;29;20089;-79
2020/12/10 09:06:14;;;;;;;2.55;1.90;;;;;;;18.91;47.51;100730.81;4842743;29;20094;-79
2020/12/10 09:08:39;;;;;;;2.60;1.67;;;;;;;18.88;47.79;100722.97;4842137;29;20044;-80
2020/12/10 09:11:08;;;;;;;2.40;1.95;;;;;;;18.94;47.23;100729.94;4832550;29;20041;-79
2020/12/10 09:13:34;;;;;;;2.65;2.38;;;;;;;18.92;47.25;100730.81;4858250;29;20386;-77
2020/12/10 09:16:00;;;;;;;3.47;2.22;;;;;;;18.94;47.57;100737.78;4843361;29;20034;-79
2020/12/10 09:18:26;;;;;;;2.90;2.10;;;;;;;18.97;47.18;100728.13;4844130;29;20061;-78
2020/12/10 09:20:53;;;;;;;2.28;1.52;;;;;;;18.99;47.28;100731.59;4843869;29;20029;-78
2020/12/10 09:23:19;;;;;;;2.53;1.77;;;;;;;18.99;47.47;100734.22;4853435;29;20044;-80
2020/12/10 09:25:45;;;;;;;2.47;1.67;;;;;;;19.03;47.50;100725.47;4858484;29;20026;-79
2020/12/10 09:28:11;;;;;;;3.55;1.90;;;;;;;19.03;47.37;100724.59;4863157;29;20132;-80
2020/12/10 09:30:38;;;;;;;2.78;1.83;;;;;;;19.00;47.27;100720.25;4858316;29;20121;-80
2020/12/10 09:33:04;;;;;;;2.88;2.15;;;;;;;19.04;47.47;100721.97;4826363;29;20046;-80
2020/12/10 09:35:29;;;;;;;1.92;1.35;;;;;;;19.07;47.38;100724.56;4828226;29;20102;-80
2020/12/10 09:37:55;;;;;;;2.40;1.70;;;;;;;19.02;47.13;100717.63;4857567;29;20492;-80
2020/12/10 09:40:26;;;;;;;3.45;2.15;;;;;;;19.10;47.41;100728.88;4877171;29;20041;-80
2020/12/10 09:42:52;;;;;;;3.17;2.17;;;;;;;19.10;47.22;100723.63;4845750;29;20048;-80
2020/12/10 09:45:21;;;;;;;2.65;2.00;;;;;;;19.06;47.30;100719.34;4844261;29;20041;-80
2020/12/10 09:47:47;;;;;;;1.92;1.60;;;;;;;19.09;47.41;100719.28;4857473;29;20907;-79
2020/12/10 09:50:32;;;;;;;3.45;1.60;;;;;;;19.06;47.32;100714.09;4848399;29;20041;-79
2020/12/10 09:58:45;;;;;;;2.47;1.83;;;;;;;19.13;46.93;100710.50;4848772;29;20573;-80
2020/12/10 10:01:12;;;;;;;2.85;1.95;;;;;;;19.16;47.13;100706.13;4861749;29;20045;-80
2020/12/10 10:03:52;;;;;;;2.40;1.83;;;;;;;19.14;47.23;100713.13;4852493;29;20383;-80
2020/12/10 10:06:17;;;;;;;2.30;1.40;;;;;;;19.14;47.24;100718.38;4860503;29;20121;-80
2020/12/10 10:08:43;;;;;;;2.85;2.17;;;;;;;19.12;47.18;100706.16;4855361;29;20131;-80
2020/12/10 10:11:08;;;;;;;2.40;1.70;;;;;;;19.14;47.22;100696.53;4839322;29;20496;-79
2020/12/10 10:13:57;;;;;;;2.35;1.55;;;;;;;19.11;47.22;100701.78;4844556;29;20046;-80
2020/12/10 10:16:30;;;;;;;2.78;1.80;;;;;;;19.15;47.27;100717.47;4866700;29;20472;-79
2020/12/10 10:18:57;;;;;;;2.88;1.75;;;;;;;19.09;47.18;100706.16;4869138;29;20021;-78
2020/12/10 10:21:27;;;;;;;2.40;1.50;;;;;;;19.10;47.38;100710.53;4861367;29;20116;-78
2020/12/10 10:23:53;;;;;;;3.10;1.70;;;;;;;19.07;47.28;100705.34;4842213;29;20500;-78
2020/12/10 10:26:18;;;;;;;2.50;1.60;;;;;;;19.15;46.90;100724.47;4842693;29;20052;-78
2020/12/10 10:28:46;;;;;;;2.60;1.58;;;;;;;19.12;47.22;100722.75;4843932;29;20029;-78
2020/12/10 10:31:12;;;;;;;2.55;1.60;;;;;;;19.15;47.23;100727.09;4859938;29;20036;-78
2020/12/10 10:33:39;;;;;;;1.95;1.73;;;;;;;19.13;47.34;100711.38;4847742;29;20403;-78
2020/12/10 10:36:05;;;;;;;2.30;1.40;;;;;;;19.12;47.13;100714.00;4823435;29;20552;-78
2020/12/10 10:38:30;;;;;;;1.95;1.45;;;;;;;19.12;47.32;100722.75;4841491;29;20129;-78
2020/12/10 10:40:55;;;;;;;2.33;1.80;;;;;;;19.14;47.27;100718.38;4841613;29;20121;-78
2020/12/10 10:43:22;;;;;;;2.78;2.03;;;;;;;19.17;47.09;100722.72;4850292;29;20106;-78
2020/12/10 10:45:48;;;;;;;2.05;1.40;;;;;;;19.12;47.05;100708.78;4856648;29;20045;-78
2020/12/10 10:48:14;;;;;;;2.97;1.60;;;;;;;19.15;47.05;100701.75;4860291;29;20488;-78
2020/12/10 10:50:39;;;;;;;2.70;1.52;;;;;;;19.19;46.99;100718.34;4842286;29;20507;-78
2020/12/10 10:53:05;;;;;;;2.40;1.50;;;;;;;19.13;46.93;100713.13;4855085;29;20045;-82
2020/12/10 10:55:30;;;;;;;1.85;1.23;;;;;;;19.20;46.58;100706.97;4850492;29;20120;-77
2020/12/10 10:57:56;;;;;;;3.17;2.10;;;;;;;19.29;46.90;100709.47;4844601;29;20568;-75
2020/12/10 11:00:21;;;;;;;3.30;1.60;;;;;;;19.25;47.32;100706.00;4853819;29;20045;-77
2020/12/10 11:03:01;;;;;;;4.05;1.98;;;;;;;19.34;47.61;100705.06;4843521;29;20046;-75
2020/12/10 11:05:27;;;;;;;3.00;2.00;;;;;;;19.34;47.71;100701.59;4833989;29;20052;-76
2020/12/10 11:07:52;;;;;;;3.20;2.08;;;;;;;19.32;47.55;100690.22;4843233;29;20037;-76
2020/12/10 11:10:22;;;;;;;2.85;2.00;;;;;;;19.38;47.65;100693.66;4825802;29;20038;-77
2020/12/10 11:12:49;;;;;;;2.92;2.20;;;;;;;19.37;47.85;100697.16;4825053;29;20124;-77
2020/12/10 11:15:15;;;;;;;3.15;2.38;;;;;;;19.31;48.02;100683.25;4862806;29;20177;-79
2020/12/10 11:18:01;;;;;;;2.38;1.80;;;;;;;19.34;48.07;100697.22;4850082;29;20041;-78
2020/12/10 11:20:27;;;;;;;2.47;1.85;;;;;;;19.35;47.81;100691.03;4849318;29;20040;-79
2020/12/10 11:22:53;;;;;;;3.20;2.20;;;;;;;19.37;47.96;100696.28;4857904;29;20034;-77
2020/12/10 11:25:18;;;;;;;5.07;2.40;;;;;;;19.40;47.72;100693.63;4839647;29;20549;-77
2020/12/10 11:27:44;;;;;;;2.00;1.40;;;;;;;19.44;47.72;100685.72;4840827;29;20054;-76
2020/12/10 11:30:09;;;;;;;2.92;1.77;;;;;;;19.43;47.64;100684.00;4837654;29;20062;-75
2020/12/10 11:32:34;;;;;;;2.10;1.60;;;;;;;19.40;47.61;100683.16;4858718;29;20034;-77
2020/12/10 11:35:00;;;;;;;3.42;1.98;;;;;;;19.47;47.64;100683.06;4838258;29;20124;-76